sensor_id;sensor_type;location;lat;lon;timestamp;pressure;altitude;pressure_sealevel;temperature;humidity
16120;BME280;12670;53.502;10.252;2023-12-20T00:02:53;100620.53;;;7.21;100.00
16120;BME280;12670;53.502;10.252;2023-12-20T00:05:56;100626.59;;;7.25;100.00
16120;BME280;12670;53.502;10.252;2023-12-20T00:09:00;100619.66;;;6.92;100.00
16120;BME280;12670;53.502;10.252;2023-12-20T00:12:03;100614.94;;;7.04;100.00
16120;BME280;12670;53.502;10.252;2023-12-20T00:15:07;100612.13;;;7.08;100.00
16120;BME280;12670;53.502;10.252;2023-12-20T00:18:09;100612.50;;;6.96;100.00
16120;BME280;12670;53.502;10.252;2023-12-20T00:21:12;100620.03;;;7.08;100.00
16120;BME280;12670;53.502;10.252;2023-12-20T00:24:16;100617.22;;;7.16;100.00
16120;BME280;12670;53.502;10.252;2023-12-20T00:27:19;100616.34;;;7.15;100.00
16120;BME280;12670;53.502;10.252;2023-12-20T00:30:22;100612.13;;;7.08;100.00
16120;BME280;12670;53.502;10.252;2023-12-20T00:33:24;100606.31;;;6.66;100.00
16120;BME280;12670;53.502;10.252;2023-12-20T00:36:27;100607.31;;;6.93;100.00
16120;BME280;12670;53.502;10.252;2023-12-20T00:39:31;100599.75;;;6.81;100.00
16120;BME280;12670;53.502;10.252;2023-12-20T00:42:34;100607.34;;;6.91;100.00
16120;BME280;12670;53.502;10.252;2023-12-20T00:45:37;100603.53;;;7.02;100.00
16120;BME280;12670;53.502;10.252;2023-12-20T00:48:40;100599.34;;;6.94;100.00
16120;BME280;12670;53.502;10.252;2023-12-20T00:51:45;100599.19;;;7.01;100.00
16120;BME280;12670;53.502;10.252;2023-12-20T00:54:50;100593.22;;;6.94;100.00
16120;BME280;12670;53.502;10.252;2023-12-20T00:57:53;100582.38;;;6.74;100.00
16120;BME280;12670;53.502;10.252;2023-12-20T01:00:56;100592.56;;;6.86;100.00
16120;BME280;12670;53.502;10.252;2023-12-20T01:03:59;100578.34;;;6.91;100.00
16120;BME280;12670;53.502;10.252;2023-12-20T01:07:02;100577.81;;;6.80;100.00
16120;BME280;12670;53.502;10.252;2023-12-20T01:10:08;100582.28;;;6.77;100.00
16120;BME280;12670;53.502;10.252;2023-12-20T01:13:11;100573.28;;;6.84;100.00
16120;BME280;12670;53.502;10.252;2023-12-20T01:16:14;100587.38;;;6.83;100.00
16120;BME280;12670;53.502;10.252;2023-12-20T01:19:17;100573.78;;;6.97;100.00
16120;BME280;12670;53.502;10.252;2023-12-20T01:22:19;100579.19;;;6.93;100.00
16120;BME280;12670;53.502;10.252;2023-12-20T01:25:24;100576.41;;;6.67;100.00
16120;BME280;12670;53.502;10.252;2023-12-20T01:28:26;100575.84;;;6.87;100.00
16120;BME280;12670;53.502;10.252;2023-12-20T01:31:29;100565.09;;;6.63;100.00
16120;BME280;12670;53.502;10.252;2023-12-20T01:34:32;100558.19;;;6.59;100.00
16120;BME280;12670;53.502;10.252;2023-12-20T01:37:35;100565.00;;;6.66;100.00
16120;BME280;12670;53.502;10.252;2023-12-20T01:40:39;100573.47;;;6.78;100.00
16120;BME280;12670;53.502;10.252;2023-12-20T01:43:41;100573.09;;;6.60;100.00
16120;BME280;12670;53.502;10.252;2023-12-20T01:46:52;100568.19;;;6.78;100.00
16120;BME280;12670;53.502;10.252;2023-12-20T01:49:55;100566.28;;;6.83;100.00
16120;BME280;12670;53.502;10.252;2023-12-20T01:53:00;100552.22;;;6.53;100.00
16120;BME280;12670;53.502;10.252;2023-12-20T01:56:05;100554.16;;;6.46;100.00
16120;BME280;12670;53.502;10.252;2023-12-20T01:59:09;100551.09;;;6.30;100.00
16120;BME280;12670;53.502;10.252;2023-12-20T02:02:11;100550.31;;;6.58;100.00
16120;BME280;12670;53.502;10.252;2023-12-20T02:05:14;100542.72;;;6.47;100.00
16120;BME280;12670;53.502;10.252;2023-12-20T02:08:17;100542.78;;;6.46;100.00
16120;BME280;12670;53.502;10.252;2023-12-20T02:11:21;100545.41;;;6.46;100.00
16120;BME280;12670;53.502;10.252;2023-12-20T02:14:24;100544.53;;;6.45;100.00
16120;BME280;12670;53.502;10.252;2023-12-20T02:17:27;100546.25;;;6.77;100.00
16120;BME280;12670;53.502;10.252;2023-12-20T02:20:30;100541.50;;;6.59;100.00
16120;BME280;12670;53.502;10.252;2023-12-20T02:23:34;100528.00;;;6.40;100.00
16120;BME280;12670;53.502;10.252;2023-12-20T02:26:36;100517.69;;;6.62;100.00
16120;BME280;12670;53.502;10.252;2023-12-20T02:29:39;100518.00;;;6.51;100.00
16120;BME280;12670;53.502;10.252;2023-12-20T02:32:42;100512.94;;;6.44;100.00
16120;BME280;12670;53.502;10.252;2023-12-20T02:35:44;100514.66;;;6.46;100.00
16120;BME280;12670;53.502;10.252;2023-12-20T02:38:48;100511.50;;;6.33;100.00
16120;BME280;12670;53.502;10.252;2023-12-20T02:41:52;100505.34;;;6.33;100.00
16120;BME280;12670;53.502;10.252;2023-12-20T02:44:54;100511.97;;;6.17;100.00
16120;BME280;12670;53.502;10.252;2023-12-20T02:47:58;100510.75;;;6.28;100.00
16120;BME280;12670;53.502;10.252;2023-12-20T02:51:00;100512.75;;;6.51;100.00
16120;BME280;12670;53.502;10.252;2023-12-20T02:54:04;100506.69;;;6.48;100.00
16120;BME280;12670;53.502;10.252;2023-12-20T02:57:07;100501.72;;;6.37;100.00
16120;BME280;12670;53.502;10.252;2023-12-20T03:00:11;100502.63;;;6.36;100.00
16120;BME280;12670;53.502;10.252;2023-12-20T03:03:13;100497.09;;;6.45;100.00
16120;BME280;12670;53.502;10.252;2023-12-20T03:06:17;100493.34;;;6.23;100.00
16120;BME280;12670;53.502;10.252;2023-12-20T03:09:21;100481.75;;;6.59;100.00
16120;BME280;12670;53.502;10.252;2023-12-20T03:12:24;100485.66;;;6.45;100.00
16120;BME280;12670;53.502;10.252;2023-12-20T03:15:27;100487.88;;;6.60;100.00
16120;BME280;12670;53.502;10.252;2023-12-20T03:18:29;100475.84;;;6.51;100.00
16120;BME280;12670;53.502;10.252;2023-12-20T03:21:32;100473.22;;;6.50;100.00
16120;BME280;12670;53.502;10.252;2023-12-20T03:24:36;100469.06;;;6.43;100.00
16120;BME280;12670;53.502;10.252;2023-12-20T03:27:39;100463.72;;;6.44;100.00
16120;BME280;12670;53.502;10.252;2023-12-20T03:30:42;100459.00;;;6.26;100.00
16120;BME280;12670;53.502;10.252;2023-12-20T03:33:44;100458.34;;;6.49;100.00
16120;BME280;12670;53.502;10.252;2023-12-20T03:36:47;100450.91;;;6.33;100.00
16120;BME280;12670;53.502;10.252;2023-12-20T03:39:51;100452.06;;;6.53;100.00
16120;BME280;12670;53.502;10.252;2023-12-20T03:42:54;100448.50;;;6.24;100.00
16120;BME280;12670;53.502;10.252;2023-12-20T03:45:57;100440.50;;;6.27;100.00
16120;BME280;12670;53.502;10.252;2023-12-20T03:49:00;100447.91;;;6.14;100.00
16120;BME280;12670;53.502;10.252;2023-12-20T03:52:05;100440.47;;;6.29;100.00
16120;BME280;12670;53.502;10.252;2023-12-20T03:55:09;100438.59;;;6.34;100.00
16120;BME280;12670;53.502;10.252;2023-12-20T03:58:12;100434.97;;;6.36;100.00
16120;BME280;12670;53.502;10.252;2023-12-20T04:01:15;100432.78;;;6.21;100.00
16120;BME280;12670;53.502;10.252;2023-12-20T04:04:18;100424.06;;;6.19;100.00
16120;BME280;12670;53.502;10.252;2023-12-20T04:07:21;100417.94;;;6.19;100.00
16120;BME280;12670;53.502;10.252;2023-12-20T04:10:25;100421.56;;;6.44;100.00
16120;BME280;12670;53.502;10.252;2023-12-20T04:13:28;100414.69;;;6.40;100.00
16120;BME280;12670;53.502;10.252;2023-12-20T04:16:31;100410.84;;;6.50;100.00
16120;BME280;12670;53.502;10.252;2023-12-20T04:19:34;100413.47;;;6.50;100.00
16120;BME280;12670;53.502;10.252;2023-12-20T04:22:36;100407.22;;;6.54;100.00
16120;BME280;12670;53.502;10.252;2023-12-20T04:25:40;100408.03;;;6.27;100.00
16120;BME280;12670;53.502;10.252;2023-12-20T04:28:43;100396.91;;;6.17;100.00
16120;BME280;12670;53.502;10.252;2023-12-20T04:31:46;100395.28;;;6.13;100.00
16120;BME280;12670;53.502;10.252;2023-12-20T04:34:48;100392.69;;;6.11;100.00
16120;BME280;12670;53.502;10.252;2023-12-20T04:37:51;100385.09;;;6.30;100.00
16120;BME280;12670;53.502;10.252;2023-12-20T04:40:55;100384.13;;;6.34;100.00
16120;BME280;12670;53.502;10.252;2023-12-20T04:43:58;100377.88;;;6.37;100.00
16120;BME280;12670;53.502;10.252;2023-12-20T04:47:02;100374.81;;;6.23;100.00
16120;BME280;12670;53.502;10.252;2023-12-20T04:50:05;100376.22;;;6.33;100.00
16120;BME280;12670;53.502;10.252;2023-12-20T04:53:09;100364.09;;;6.29;100.00
16120;BME280;12670;53.502;10.252;2023-12-20T04:56:13;100357.28;;;6.22;100.00
16120;BME280;12670;53.502;10.252;2023-12-20T04:59:15;100356.94;;;6.32;100.00
16120;BME280;12670;53.502;10.252;2023-12-20T05:02:18;100359.88;;;6.51;100.00
16120;BME280;12670;53.502;10.252;2023-12-20T05:05:21;100348.47;;;6.23;100.00
16120;BME280;12670;53.502;10.252;2023-12-20T05:08:23;100353.72;;;6.23;100.00
16120;BME280;12670;53.502;10.252;2023-12-20T05:11:27;100361.47;;;6.27;100.00
16120;BME280;12670;53.502;10.252;2023-12-20T05:14:30;100354.81;;;6.45;100.00
16120;BME280;12670;53.502;10.252;2023-12-20T05:17:33;100354.97;;;6.39;100.00
16120;BME280;12670;53.502;10.252;2023-12-20T05:20:36;100348.50;;;6.49;100.00
16120;BME280;12670;53.502;10.252;2023-12-20T05:23:38;100339.34;;;6.33;100.00
16120;BME280;12670;53.502;10.252;2023-12-20T05:26:42;100341.47;;;6.50;100.00
16120;BME280;12670;53.502;10.252;2023-12-20T05:29:45;100353.06;;;6.44;100.00
16120;BME280;12670;53.502;10.252;2023-12-20T05:32:48;100342.75;;;6.36;100.00
16120;BME280;12670;53.502;10.252;2023-12-20T05:35:51;100346.56;;;6.28;100.00
16120;BME280;12670;53.502;10.252;2023-12-20T05:38:54;100345.31;;;6.39;100.00
16120;BME280;12670;53.502;10.252;2023-12-20T05:41:58;100334.38;;;6.24;100.00
16120;BME280;12670;53.502;10.252;2023-12-20T05:45:01;100354.50;;;6.26;100.00
16120;BME280;12670;53.502;10.252;2023-12-20T05:48:04;100344.31;;;6.14;100.00
16120;BME280;12670;53.502;10.252;2023-12-20T05:51:07;100331.41;;;6.34;100.00
16120;BME280;12670;53.502;10.252;2023-12-20T05:54:13;100323.06;;;6.48;100.00
16120;BME280;12670;53.502;10.252;2023-12-20T05:57:17;100332.69;;;6.49;100.00
16120;BME280;12670;53.502;10.252;2023-12-20T06:00:20;100336.63;;;6.64;100.00
16120;BME280;12670;53.502;10.252;2023-12-20T06:03:23;100331.78;;;6.50;100.00
16120;BME280;12670;53.502;10.252;2023-12-20T06:06:25;100333.47;;;6.53;100.00
16120;BME280;12670;53.502;10.252;2023-12-20T06:09:28;100331.03;;;6.47;100.00
16120;BME280;12670;53.502;10.252;2023-12-20T06:12:34;100331.09;;;6.45;100.00
16120;BME280;12670;53.502;10.252;2023-12-20T06:15:37;100315.31;;;6.44;100.00
16120;BME280;12670;53.502;10.252;2023-12-20T06:18:41;100317.72;;;6.51;100.00
16120;BME280;12670;53.502;10.252;2023-12-20T06:21:44;100300.06;;;6.53;100.00
16120;BME280;12670;53.502;10.252;2023-12-20T06:24:47;100321.81;;;6.32;100.00
16120;BME280;12670;53.502;10.252;2023-12-20T06:27:51;100315.50;;;6.37;100.00
16120;BME280;12670;53.502;10.252;2023-12-20T06:30:53;100304.03;;;6.40;100.00
16120;BME280;12670;53.502;10.252;2023-12-20T06:33:56;100300.06;;;6.53;100.00
16120;BME280;12670;53.502;10.252;2023-12-20T06:37:01;100294.50;;;6.62;100.00
16120;BME280;12670;53.502;10.252;2023-12-20T06:40:05;100293.13;;;6.51;100.00
16120;BME280;12670;53.502;10.252;2023-12-20T06:43:18;100289.63;;;6.50;100.00
16120;BME280;12670;53.502;10.252;2023-12-20T06:46:40;100282.75;;;6.18;100.00
16120;BME280;12670;53.502;10.252;2023-12-20T06:49:43;100285.81;;;6.32;100.00
16120;BME280;12670;53.502;10.252;2023-12-20T06:52:45;100289.47;;;6.55;100.00
16120;BME280;12670;53.502;10.252;2023-12-20T06:55:48;100277.16;;;6.55;100.00
16120;BME280;12670;53.502;10.252;2023-12-20T06:58:52;100276.38;;;6.53;100.00
16120;BME280;12670;53.502;10.252;2023-12-20T07:01:55;100280.31;;;6.40;100.00
16120;BME280;12670;53.502;10.252;2023-12-20T07:04:58;100276.66;;;6.44;100.00
16120;BME280;12670;53.502;10.252;2023-12-20T07:08:01;100270.16;;;6.54;100.00
16120;BME280;12670;53.502;10.252;2023-12-20T07:11:03;100264.84;;;6.56;100.00
16120;BME280;12670;53.502;10.252;2023-12-20T07:14:07;100256.59;;;6.66;100.00
16120;BME280;12670;53.502;10.252;2023-12-20T07:17:10;100257.59;;;6.62;100.00
16120;BME280;12670;53.502;10.252;2023-12-20T07:20:15;100254.50;;;6.50;100.00
16120;BME280;12670;53.502;10.252;2023-12-20T07:23:18;100261.25;;;6.58;100.00
16120;BME280;12670;53.502;10.252;2023-12-20T07:26:21;100267.19;;;6.65;100.00
16120;BME280;12670;53.502;10.252;2023-12-20T07:29:26;100272.94;;;6.50;100.00
16120;BME280;12670;53.502;10.252;2023-12-20T07:32:28;100264.72;;;6.85;100.00
16120;BME280;12670;53.502;10.252;2023-12-20T07:35:31;100268.94;;;6.38;100.00
16120;BME280;12670;53.502;10.252;2023-12-20T07:38:34;100265.69;;;6.56;100.00
16120;BME280;12670;53.502;10.252;2023-12-20T07:41:37;100266.63;;;6.55;100.00
16120;BME280;12670;53.502;10.252;2023-12-20T07:44:41;100258.56;;;6.60;100.00
16120;BME280;12670;53.502;10.252;2023-12-20T07:47:44;100248.16;;;6.57;100.00
16120;BME280;12670;53.502;10.252;2023-12-20T07:50:47;100249.69;;;6.62;100.00
16120;BME280;12670;53.502;10.252;2023-12-20T07:53:50;100236.22;;;6.72;100.00
16120;BME280;12670;53.502;10.252;2023-12-20T07:56:52;100242.81;;;6.58;100.00
16120;BME280;12670;53.502;10.252;2023-12-20T07:59:56;100250.59;;;6.61;100.00
16120;BME280;12670;53.502;10.252;2023-12-20T08:02:59;100250.72;;;6.58;100.00
16120;BME280;12670;53.502;10.252;2023-12-20T08:06:04;100250.81;;;6.55;100.00
16120;BME280;12670;53.502;10.252;2023-12-20T08:09:07;100233.06;;;6.60;100.00
16120;BME280;12670;53.502;10.252;2023-12-20T08:12:10;100237.94;;;6.73;100.00
16120;BME280;12670;53.502;10.252;2023-12-20T08:15:14;100227.50;;;6.70;100.00
16120;BME280;12670;53.502;10.252;2023-12-20T08:18:17;100221.03;;;6.53;100.00
16120;BME280;12670;53.502;10.252;2023-12-20T08:21:20;100224.03;;;6.67;100.00
16120;BME280;12670;53.502;10.252;2023-12-20T08:24:24;100225.38;;;6.79;100.00
16120;BME280;12670;53.502;10.252;2023-12-20T08:27:26;100216.19;;;6.66;100.00
16120;BME280;12670;53.502;10.252;2023-12-20T08:30:30;100207.34;;;6.68;100.00
16120;BME280;12670;53.502;10.252;2023-12-20T08:33:34;100206.06;;;6.80;100.00
16120;BME280;12670;53.502;10.252;2023-12-20T08:36:37;100203.66;;;6.73;100.00
16120;BME280;12670;53.502;10.252;2023-12-20T08:39:39;100201.72;;;6.78;100.00
16120;BME280;12670;53.502;10.252;2023-12-20T08:42:46;100188.09;;;6.90;100.00
16120;BME280;12670;53.502;10.252;2023-12-20T08:45:50;100179.28;;;6.91;100.00
16120;BME280;12670;53.502;10.252;2023-12-20T08:48:53;100181.34;;;6.83;100.00
16120;BME280;12670;53.502;10.252;2023-12-20T08:51:56;100183.81;;;6.87;100.00
16120;BME280;12670;53.502;10.252;2023-12-20T08:54:59;100178.38;;;6.92;100.00
16120;BME280;12670;53.502;10.252;2023-12-20T08:58:01;100165.19;;;6.92;100.00
16120;BME280;12670;53.502;10.252;2023-12-20T09:01:05;100173.91;;;6.94;100.00
16120;BME280;12670;53.502;10.252;2023-12-20T09:04:09;100153.75;;;7.16;100.00
16120;BME280;12670;53.502;10.252;2023-12-20T09:07:22;100164.09;;;6.98;100.00
16120;BME280;12670;53.502;10.252;2023-12-20T09:10:25;100155.06;;;7.05;100.00
16120;BME280;12670;53.502;10.252;2023-12-20T09:13:28;100177.47;;;6.93;100.00
16120;BME280;12670;53.502;10.252;2023-12-20T09:16:32;100164.44;;;6.88;100.00
16120;BME280;12670;53.502;10.252;2023-12-20T09:19:35;100141.81;;;6.58;100.00
16120;BME280;12670;53.502;10.252;2023-12-20T09:22:37;100151.31;;;6.62;100.00
16120;BME280;12670;53.502;10.252;2023-12-20T09:25:40;100152.28;;;6.59;100.00
16120;BME280;12670;53.502;10.252;2023-12-20T09:28:43;100176.44;;;6.72;100.00
16120;BME280;12670;53.502;10.252;2023-12-20T09:31:47;100192.09;;;6.52;100.00
16120;BME280;12670;53.502;10.252;2023-12-20T09:34:51;100190.00;;;6.35;100.00
16120;BME280;12670;53.502;10.252;2023-12-20T09:37:54;100207.69;;;6.31;100.00
16120;BME280;12670;53.502;10.252;2023-12-20T09:40:56;100173.38;;;6.06;100.00
16120;BME280;12670;53.502;10.252;2023-12-20T09:44:00;100188.28;;;6.07;100.00
16120;BME280;12670;53.502;10.252;2023-12-20T09:47:06;100181.81;;;6.18;100.00
16120;BME280;12670;53.502;10.252;2023-12-20T09:50:09;100179.66;;;6.02;100.00
16120;BME280;12670;53.502;10.252;2023-12-20T09:53:15;100194.78;;;5.96;100.00
16120;BME280;12670;53.502;10.252;2023-12-20T09:56:18;100192.03;;;6.27;100.00
16120;BME280;12670;53.502;10.252;2023-12-20T09:59:21;100188.38;;;6.04;100.00
16120;BME280;12670;53.502;10.252;2023-12-20T10:02:25;100176.53;;;6.18;100.00
16120;BME280;12670;53.502;10.252;2023-12-20T10:05:30;100182.41;;;5.99;100.00
16120;BME280;12670;53.502;10.252;2023-12-20T10:08:33;100194.34;;;6.09;100.00
16120;BME280;12670;53.502;10.252;2023-12-20T10:11:37;100183.47;;;5.92;100.00
16120;BME280;12670;53.502;10.252;2023-12-20T10:14:40;100173.38;;;6.06;100.00
16120;BME280;12670;53.502;10.252;2023-12-20T10:17:44;100172.81;;;5.97;100.00
16120;BME280;12670;53.502;10.252;2023-12-20T10:20:48;100157.97;;;6.21;100.00
16120;BME280;12670;53.502;10.252;2023-12-20T10:23:50;100151.81;;;6.22;100.00
16120;BME280;12670;53.502;10.252;2023-12-20T10:27:01;100177.06;;;6.27;100.00
16120;BME280;12670;53.502;10.252;2023-12-20T10:30:06;100205.00;;;6.06;100.00
16120;BME280;12670;53.502;10.252;2023-12-20T10:33:10;100202.63;;;5.97;100.00
16120;BME280;12670;53.502;10.252;2023-12-20T10:36:13;100198.44;;;5.90;100.00
16120;BME280;12670;53.502;10.252;2023-12-20T10:39:17;100186.09;;;5.94;100.00
16120;BME280;12670;53.502;10.252;2023-12-20T10:42:22;100191.72;;;5.80;100.00
16120;BME280;12670;53.502;10.252;2023-12-20T10:45:25;100173.78;;;5.94;100.00
16120;BME280;12670;53.502;10.252;2023-12-20T10:48:30;100151.13;;;6.17;100.00
16120;BME280;12670;53.502;10.252;2023-12-20T10:51:34;100171.09;;;5.96;100.00
16120;BME280;12670;53.502;10.252;2023-12-20T10:54:38;100163.66;;;6.08;100.00
16120;BME280;12670;53.502;10.252;2023-12-20T10:57:41;100166.09;;;6.41;100.00
16120;BME280;12670;53.502;10.252;2023-12-20T11:00:45;100163.97;;;6.26;100.00
16120;BME280;12670;53.502;10.252;2023-12-20T11:03:53;100150.22;;;6.67;100.00
16120;BME280;12670;53.502;10.252;2023-12-20T11:07:04;100168.53;;;6.47;100.00
16120;BME280;12670;53.502;10.252;2023-12-20T11:10:13;100152.72;;;6.47;100.00
16120;BME280;12670;53.502;10.252;2023-12-20T11:13:22;100165.16;;;6.15;100.00
16120;BME280;12670;53.502;10.252;2023-12-20T11:16:25;100148.06;;;6.02;100.00
16120;BME280;12670;53.502;10.252;2023-12-20T11:20:08;100157.59;;;6.06;100.00
16120;BME280;12670;53.502;10.252;2023-12-20T11:23:14;100145.06;;;6.13;100.00
16120;BME280;12670;53.502;10.252;2023-12-20T11:26:22;100153.25;;;6.04;100.00
16120;BME280;12670;53.502;10.252;2023-12-20T11:29:32;100162.16;;;6.28;100.00
16120;BME280;12670;53.502;10.252;2023-12-20T11:32:36;100159.81;;;6.19;100.00
16120;BME280;12670;53.502;10.252;2023-12-20T11:35:40;100170.63;;;6.11;100.00
16120;BME280;12670;53.502;10.252;2023-12-20T11:38:54;100169.78;;;6.35;100.00
16120;BME280;12670;53.502;10.252;2023-12-20T11:42:04;100154.13;;;6.57;100.00
16120;BME280;12670;53.502;10.252;2023-12-20T11:45:09;100167.09;;;6.63;100.00
16120;BME280;12670;53.502;10.252;2023-12-20T11:48:12;100184.19;;;6.52;100.00
16120;BME280;12670;53.502;10.252;2023-12-20T11:51:16;100188.63;;;6.50;100.00
16120;BME280;12670;53.502;10.252;2023-12-20T11:54:19;100182.41;;;6.77;100.00
16120;BME280;12670;53.502;10.252;2023-12-20T11:57:22;100166.88;;;6.70;100.00
16120;BME280;12670;53.502;10.252;2023-12-20T12:00:26;100158.25;;;6.64;100.00
16120;BME280;12670;53.502;10.252;2023-12-20T12:03:29;100164.75;;;6.54;100.00
16120;BME280;12670;53.502;10.252;2023-12-20T12:06:33;100160.88;;;6.39;100.00
16120;BME280;12670;53.502;10.252;2023-12-20T12:09:36;100153.66;;;6.45;100.00
16120;BME280;12670;53.502;10.252;2023-12-20T12:12:39;100161.84;;;6.37;100.00
16120;BME280;12670;53.502;10.252;2023-12-20T12:15:42;100160.47;;;6.52;100.00
16120;BME280;12670;53.502;10.252;2023-12-20T12:18:46;100146.53;;;6.48;100.00
16120;BME280;12670;53.502;10.252;2023-12-20T12:21:50;100161.09;;;6.33;100.00
16120;BME280;12670;53.502;10.252;2023-12-20T12:24:53;100152.63;;;6.24;100.00
16120;BME280;12670;53.502;10.252;2023-12-20T12:27:56;100139.66;;;6.18;100.00
16120;BME280;12670;53.502;10.252;2023-12-20T12:30:59;100148.00;;;6.30;100.00
16120;BME280;12670;53.502;10.252;2023-12-20T12:34:02;100138.38;;;6.29;100.00
16120;BME280;12670;53.502;10.252;2023-12-20T12:37:06;100134.19;;;6.24;100.00
16120;BME280;12670;53.502;10.252;2023-12-20T12:40:10;100143.13;;;6.45;100.00
16120;BME280;12670;53.502;10.252;2023-12-20T12:43:13;100142.47;;;6.38;100.00
16120;BME280;12670;53.502;10.252;2023-12-20T12:46:16;100141.69;;;6.61;100.00
16120;BME280;12670;53.502;10.252;2023-12-20T12:49:19;100128.69;;;7.05;100.00
16120;BME280;12670;53.502;10.252;2023-12-20T12:52:24;100137.91;;;6.93;100.00
16120;BME280;12670;53.502;10.252;2023-12-20T12:55:28;100129.94;;;7.18;100.00
16120;BME280;12670;53.502;10.252;2023-12-20T12:58:31;100136.19;;;7.39;100.00
16120;BME280;12670;53.502;10.252;2023-12-20T13:01:34;100147.06;;;7.53;100.00
16120;BME280;12670;53.502;10.252;2023-12-20T13:04:37;100148.91;;;7.51;100.00
16120;BME280;12670;53.502;10.252;2023-12-20T13:07:43;100155.09;;;7.03;100.00
16120;BME280;12670;53.502;10.252;2023-12-20T13:10:48;100149.09;;;7.00;100.00
16120;BME280;12670;53.502;10.252;2023-12-20T13:13:50;100148.41;;;6.94;100.00
16120;BME280;12670;53.502;10.252;2023-12-20T13:16:53;100156.16;;;6.99;100.00
16120;BME280;12670;53.502;10.252;2023-12-20T13:19:57;100153.97;;;7.10;100.00
16120;BME280;12670;53.502;10.252;2023-12-20T13:23:02;100149.41;;;7.15;100.00
16120;BME280;12670;53.502;10.252;2023-12-20T13:26:08;100148.72;;;7.10;100.00
16120;BME280;12670;53.502;10.252;2023-12-20T13:29:11;100152.38;;;7.06;100.00
16120;BME280;12670;53.502;10.252;2023-12-20T13:32:13;100143.06;;;7.19;100.00
16120;BME280;12670;53.502;10.252;2023-12-20T13:35:16;100150.28;;;7.14;100.00
16120;BME280;12670;53.502;10.252;2023-12-20T13:38:20;100141.59;;;7.12;100.00
16120;BME280;12670;53.502;10.252;2023-12-20T13:41:23;100148.94;;;7.04;100.00
16120;BME280;12670;53.502;10.252;2023-12-20T13:44:26;100153.34;;;6.79;100.00
16120;BME280;12670;53.502;10.252;2023-12-20T13:47:29;100176.63;;;6.91;100.00
16120;BME280;12670;53.502;10.252;2023-12-20T13:50:31;100161.53;;;6.71;100.00
16120;BME280;12670;53.502;10.252;2023-12-20T13:53:36;100168.31;;;6.78;100.00
16120;BME280;12670;53.502;10.252;2023-12-20T13:56:39;100164.53;;;6.60;100.00
16120;BME280;12670;53.502;10.252;2023-12-20T13:59:57;100177.00;;;6.55;100.00
16120;BME280;12670;53.502;10.252;2023-12-20T14:03:00;100175.94;;;6.61;100.00
16120;BME280;12670;53.502;10.252;2023-12-20T14:06:04;100179.84;;;6.76;100.00
16120;BME280;12670;53.502;10.252;2023-12-20T14:09:08;100182.28;;;6.55;100.00
16120;BME280;12670;53.502;10.252;2023-12-20T14:12:13;100185.03;;;6.52;100.00
16120;BME280;12670;53.502;10.252;2023-12-20T14:15:16;100181.84;;;6.43;100.00
16120;BME280;12670;53.502;10.252;2023-12-20T14:18:19;100187.03;;;6.46;100.00
16120;BME280;12670;53.502;10.252;2023-12-20T14:21:22;100188.41;;;6.56;100.00
16120;BME280;12670;53.502;10.252;2023-12-20T14:24:27;100194.75;;;6.50;100.00
16120;BME280;12670;53.502;10.252;2023-12-20T14:27:30;100186.97;;;6.47;100.00
16120;BME280;12670;53.502;10.252;2023-12-20T14:30:32;100193.25;;;6.68;100.00
16120;BME280;12670;53.502;10.252;2023-12-20T14:33:36;100200.94;;;6.76;100.00
16120;BME280;12670;53.502;10.252;2023-12-20T14:36:40;100192.53;;;6.64;100.00
16120;BME280;12670;53.502;10.252;2023-12-20T14:39:44;100182.50;;;6.74;100.00
16120;BME280;12670;53.502;10.252;2023-12-20T14:42:47;100190.19;;;6.55;100.00
16120;BME280;12670;53.502;10.252;2023-12-20T14:45:50;100200.50;;;6.63;100.00
16120;BME280;12670;53.502;10.252;2023-12-20T14:48:53;100200.50;;;6.63;100.00
16120;BME280;12670;53.502;10.252;2023-12-20T14:51:56;100198.81;;;6.60;100.00
16120;BME280;12670;53.502;10.252;2023-12-20T14:55:01;100200.41;;;6.39;100.00
16120;BME280;12670;53.502;10.252;2023-12-20T14:58:05;100207.34;;;6.42;100.00
16120;BME280;12670;53.502;10.252;2023-12-20T15:01:07;100200.22;;;6.44;100.00
16120;BME280;12670;53.502;10.252;2023-12-20T15:04:11;100200.22;;;6.44;100.00
16120;BME280;12670;53.502;10.252;2023-12-20T15:07:15;100204.88;;;6.62;100.00
16120;BME280;12670;53.502;10.252;2023-12-20T15:10:19;100199.72;;;6.33;100.00
16120;BME280;12670;53.502;10.252;2023-12-20T15:13:22;100205.34;;;6.49;100.00
16120;BME280;12670;53.502;10.252;2023-12-20T15:16:26;100205.81;;;6.35;100.00
16120;BME280;12670;53.502;10.252;2023-12-20T15:19:29;100208.00;;;6.22;100.00
16120;BME280;12670;53.502;10.252;2023-12-20T15:22:32;100210.97;;;6.38;100.00
16120;BME280;12670;53.502;10.252;2023-12-20T15:25:38;100206.81;;;6.31;100.00
16120;BME280;12670;53.502;10.252;2023-12-20T15:28:41;100200.63;;;6.32;100.00
16120;BME280;12670;53.502;10.252;2023-12-20T15:31:44;100210.69;;;6.47;100.00
16120;BME280;12670;53.502;10.252;2023-12-20T15:34:47;100206.63;;;6.37;100.00
16120;BME280;12670;53.502;10.252;2023-12-20T15:37:50;100200.56;;;6.35;100.00
16120;BME280;12670;53.502;10.252;2023-12-20T15:40:55;100204.50;;;6.48;100.00
16120;BME280;12670;53.502;10.252;2023-12-20T15:43:57;100196.00;;;6.40;100.00
16120;BME280;12670;53.502;10.252;2023-12-20T15:47:00;100197.03;;;6.61;100.00
16120;BME280;12670;53.502;10.252;2023-12-20T15:50:04;100197.19;;;6.56;100.00